createdAt,value
2017-12-02T00:00:48.171Z,-0.50
2017-12-02T00:03:15.665Z,-0.60
2017-12-02T00:05:43.143Z,-0.60
2017-12-02T00:08:10.606Z,-0.70
2017-12-02T00:10:38.095Z,-0.60
2017-12-02T00:13:05.563Z,-0.60
2017-12-02T00:15:33.051Z,-0.70
2017-12-02T00:18:00.527Z,-0.80
2017-12-02T00:20:28.019Z,-0.80
2017-12-02T00:22:55.498Z,-0.90
2017-12-02T00:25:22.966Z,-0.90
2017-12-02T00:27:51.218Z,-0.80
2017-12-02T00:30:20.198Z,-0.80
2017-12-02T00:32:47.690Z,-0.80
2017-12-02T00:35:15.926Z,-0.70
2017-12-02T00:37:43.412Z,-0.70
2017-12-02T00:40:10.896Z,-0.80
2017-12-02T00:42:38.367Z,-0.80
2017-12-02T00:45:05.858Z,-0.90
2017-12-02T00:47:33.375Z,-1.00
2017-12-02T00:50:00.855Z,-1.00
2017-12-02T00:52:28.330Z,-1.00
2017-12-02T00:54:55.823Z,-1.00
2017-12-02T00:57:24.084Z,-1.00
2017-12-02T00:59:51.566Z,-1.00
2017-12-02T01:02:19.038Z,-1.00
2017-12-02T01:04:46.530Z,-1.00
2017-12-02T01:07:14.038Z,-1.00
2017-12-02T01:09:41.502Z,-1.00
2017-12-02T01:12:08.985Z,-1.10
2017-12-02T01:14:36.463Z,-1.10
2017-12-02T01:17:03.963Z,-1.10
2017-12-02T01:19:31.435Z,-1.10
2017-12-02T01:21:58.922Z,-1.10
2017-12-02T01:24:26.427Z,-1.00
2017-12-02T01:26:54.666Z,-1.10
2017-12-02T01:29:23.658Z,-1.10
2017-12-02T01:31:51.155Z,-1.10
2017-12-02T01:34:18.734Z,-1.10
2017-12-02T01:36:46.214Z,-1.10
2017-12-02T01:39:13.722Z,-1.10
2017-12-02T01:41:41.255Z,-1.10
2017-12-02T01:44:08.735Z,-1.10
2017-12-02T01:46:36.994Z,-1.20
2017-12-02T01:49:05.231Z,-1.30
2017-12-02T01:51:32.733Z,-1.40
2017-12-02T01:54:00.995Z,-1.30
2017-12-02T01:56:28.554Z,-1.40
2017-12-02T01:58:56.034Z,-1.20
2017-12-02T02:01:23.534Z,-1.20
2017-12-02T02:03:51.021Z,-1.20
2017-12-02T02:06:18.507Z,-1.20
2017-12-02T02:08:46.039Z,-1.20
2017-12-02T02:11:13.595Z,-1.20
2017-12-02T02:13:41.067Z,-1.20
2017-12-02T02:16:09.338Z,-1.20
2017-12-02T02:18:37.586Z,-1.20
2017-12-02T02:21:05.053Z,-1.20
2017-12-02T02:23:32.537Z,-1.30
2017-12-02T02:26:00.771Z,-1.30
2017-12-02T02:28:28.262Z,-1.30
2017-12-02T02:30:56.518Z,-1.40
2017-12-02T02:33:24.002Z,-1.40
2017-12-02T02:35:52.240Z,-1.40
2017-12-02T02:38:19.715Z,-1.40
2017-12-02T02:40:47.962Z,-1.30
2017-12-02T02:43:15.453Z,-1.30
2017-12-02T02:45:43.678Z,-1.40
2017-12-02T02:48:11.152Z,-1.50
2017-12-02T02:50:38.647Z,-1.50
2017-12-02T02:53:06.873Z,-1.40
2017-12-02T02:55:34.343Z,-1.50
2017-12-02T02:58:01.830Z,-1.40
2017-12-02T03:00:30.087Z,-1.30
2017-12-02T03:02:57.562Z,-1.30
2017-12-02T03:05:25.820Z,-1.40
2017-12-02T03:07:53.284Z,-1.40
2017-12-02T03:10:20.746Z,-1.30
2017-12-02T03:12:49.042Z,-1.40
2017-12-02T03:15:16.526Z,-1.30
2017-12-02T03:17:44.005Z,-1.30
2017-12-02T03:20:11.472Z,-1.30
2017-12-02T03:22:38.972Z,-1.40
2017-12-02T03:25:07.198Z,-1.30
2017-12-02T03:27:34.667Z,-1.30
2017-12-02T03:30:02.920Z,-1.30
2017-12-02T03:32:30.399Z,-1.30
2017-12-02T03:34:57.959Z,-1.30
2017-12-02T03:37:25.440Z,-1.40
2017-12-02T03:39:53.677Z,-1.40
2017-12-02T03:42:21.156Z,-1.40
2017-12-02T03:44:49.402Z,-1.40
2017-12-02T03:47:16.871Z,-1.40
2017-12-02T03:49:44.360Z,-1.30
2017-12-02T03:52:12.596Z,-1.20
2017-12-02T03:54:40.078Z,-1.20
2017-12-02T03:57:08.337Z,-1.20
2017-12-02T03:59:35.802Z,-1.20
2017-12-02T04:02:03.295Z,-1.30
2017-12-02T04:04:30.759Z,-1.30
2017-12-02T04:06:58.246Z,-1.30
2017-12-02T04:09:25.731Z,-1.30
2017-12-02T04:11:53.214Z,-1.30
2017-12-02T04:14:20.707Z,-1.30
2017-12-02T04:16:48.175Z,-1.30
2017-12-02T04:19:15.704Z,-1.20
2017-12-02T04:21:43.166Z,-1.30
2017-12-02T04:24:10.630Z,-1.30
2017-12-02T04:26:38.125Z,-1.30
2017-12-02T04:29:05.603Z,-1.30
2017-12-02T04:31:33.863Z,-1.40
2017-12-02T04:34:01.325Z,-1.40
2017-12-02T04:36:29.594Z,-1.60
2017-12-02T04:38:57.057Z,-1.60
2017-12-02T04:41:25.316Z,-1.60
2017-12-02T04:43:52.807Z,-1.60
2017-12-02T04:46:21.034Z,-1.50
2017-12-02T04:48:48.519Z,-1.50
2017-12-02T04:51:16.834Z,-1.50
2017-12-02T04:53:44.309Z,-1.50
2017-12-02T04:56:11.782Z,-1.50
2017-12-02T04:58:39.255Z,-1.50
2017-12-02T05:01:06.747Z,-1.60
2017-12-02T05:03:34.210Z,-1.60
2017-12-02T05:06:01.698Z,-1.70
2017-12-02T05:08:29.161Z,-1.60
2017-12-02T05:10:56.630Z,-1.60
2017-12-02T05:13:24.117Z,-1.60
2017-12-02T05:15:52.355Z,-1.90
2017-12-02T05:18:19.841Z,-1.90
2017-12-02T05:20:48.099Z,-2.10
2017-12-02T05:23:15.713Z,-2.10
2017-12-02T05:25:43.186Z,-2.20
2017-12-02T05:28:10.670Z,-2.10
2017-12-02T05:30:38.150Z,-2.20
2017-12-02T05:33:06.378Z,-2.00
2017-12-02T05:35:33.866Z,-2.00
2017-12-02T05:38:01.346Z,-2.00
2017-12-02T05:40:29.587Z,-2.00
2017-12-02T05:42:57.066Z,-2.00
2017-12-02T05:45:25.310Z,-1.90
2017-12-02T05:47:52.810Z,-1.90
2017-12-02T05:50:21.051Z,-1.90
2017-12-02T05:52:48.516Z,-1.90
2017-12-02T05:55:15.995Z,-1.90
2017-12-02T05:57:44.232Z,-1.90
2017-12-02T06:00:11.711Z,-1.90
2017-12-02T06:02:39.948Z,-1.80
2017-12-02T06:05:07.428Z,-1.90
2017-12-02T06:07:36.418Z,-1.80
2017-12-02T06:10:03.894Z,-1.80
2017-12-02T06:12:32.123Z,-1.90
2017-12-02T06:14:59.606Z,-1.90
2017-12-02T06:17:27.095Z,-1.80
2017-12-02T06:19:55.319Z,-1.60
2017-12-02T06:22:22.790Z,-1.70
2017-12-02T06:24:50.272Z,-1.60
2017-12-02T06:27:18.534Z,-1.80
2017-12-02T06:29:46.010Z,-1.80
2017-12-02T06:32:14.434Z,-1.90
2017-12-02T06:34:41.922Z,-1.90
2017-12-02T06:37:09.392Z,-2.00
2017-12-02T06:39:37.622Z,-2.10
2017-12-02T06:42:05.110Z,-2.10
2017-12-02T06:44:32.601Z,-2.10
2017-12-02T06:47:00.067Z,-2.00
2017-12-02T06:49:27.540Z,-1.90
2017-12-02T06:51:55.031Z,-1.70
2017-12-02T06:54:22.507Z,-1.80
2017-12-02T06:56:50.766Z,-1.90
2017-12-02T06:59:18.235Z,-1.90
2017-12-02T07:01:45.712Z,-1.80
2017-12-02T07:04:13.195Z,-1.70
2017-12-02T07:06:40.678Z,-1.70
2017-12-02T07:09:08.203Z,-1.70
2017-12-02T07:11:35.655Z,-1.80
2017-12-02T07:14:03.146Z,-1.90
2017-12-02T07:16:30.614Z,-1.80
2017-12-02T07:18:58.099Z,-1.80
2017-12-02T07:21:26.326Z,-1.70
2017-12-02T07:23:53.798Z,-1.80
2017-12-02T07:26:21.278Z,-1.80
2017-12-02T07:28:49.530Z,-1.70
2017-12-02T07:31:17.071Z,-1.70
2017-12-02T07:33:44.550Z,-1.80
2017-12-02T07:36:12.786Z,-1.80
2017-12-02T07:38:40.271Z,-1.80
2017-12-02T07:41:07.799Z,-1.90
2017-12-02T07:43:35.271Z,-1.90
2017-12-02T07:46:02.747Z,-1.80
2017-12-02T07:48:30.238Z,-1.80
2017-12-02T07:51:00.182Z,-1.60
2017-12-02T07:53:30.007Z,-1.60
2017-12-02T07:55:59.632Z,-1.50
2017-12-02T07:58:27.123Z,-1.50
2017-12-02T08:00:55.831Z,-1.60
2017-12-02T08:03:23.366Z,-1.60
2017-12-02T08:05:51.614Z,-1.70
2017-12-02T08:08:19.082Z,-1.70
2017-12-02T08:10:46.574Z,-1.80
2017-12-02T08:13:14.032Z,-1.70
2017-12-02T08:15:41.521Z,-1.90
2017-12-02T08:18:08.999Z,-1.90
2017-12-02T08:20:36.691Z,-2.10
2017-12-02T08:23:04.938Z,-2.00
2017-12-02T08:25:32.414Z,-2.00
2017-12-02T08:28:00.669Z,-1.90
2017-12-02T08:30:28.190Z,-1.90
2017-12-02T08:32:55.670Z,-1.80
2017-12-02T08:35:23.155Z,-1.80
2017-12-02T08:37:50.622Z,-1.70
2017-12-02T08:40:21.226Z,-1.80
2017-12-02T08:42:49.715Z,-1.80
2017-12-02T08:45:17.983Z,-1.80
2017-12-02T08:47:46.132Z,-1.90
2017-12-02T08:50:13.615Z,-1.70
2017-12-02T08:52:41.191Z,-1.70
2017-12-02T08:55:09.438Z,-1.60
2017-12-02T08:57:36.918Z,-1.60
2017-12-02T09:00:05.186Z,-1.70
2017-12-02T09:02:32.642Z,-1.70
2017-12-02T09:05:00.128Z,-1.60
2017-12-02T09:07:27.619Z,-1.60
2017-12-02T09:09:55.094Z,-1.50
2017-12-02T09:12:23.703Z,-1.50
2017-12-02T09:14:51.974Z,-1.40
2017-12-02T09:17:19.646Z,-1.50
2017-12-02T09:19:47.766Z,-1.40
2017-12-02T09:22:16.888Z,-1.40
2017-12-02T09:24:44.990Z,-1.30
2017-12-02T09:27:13.145Z,-1.30
2017-12-02T09:29:40.611Z,-1.30
2017-12-02T09:32:08.867Z,-1.20
2017-12-02T09:34:37.843Z,-1.20
2017-12-02T09:37:05.329Z,-1.20
2017-12-02T09:39:33.575Z,-1.30
2017-12-02T09:42:01.055Z,-1.30
2017-12-02T09:44:29.300Z,-1.40
2017-12-02T09:46:56.767Z,-1.40
2017-12-02T09:49:24.354Z,-1.40
2017-12-02T09:51:53.348Z,-1.20
2017-12-02T09:54:21.587Z,-1.00
2017-12-02T09:56:49.112Z,-1.00
2017-12-02T09:59:16.610Z,-0.90
2017-12-02T10:01:44.094Z,-0.80
2017-12-02T10:04:11.578Z,-0.80
2017-12-02T10:06:39.053Z,-0.80
2017-12-02T10:09:06.543Z,-0.90
2017-12-02T10:11:34.007Z,-0.80
2017-12-02T10:14:01.495Z,-0.80
2017-12-02T10:16:28.975Z,-0.90
2017-12-02T10:18:56.460Z,-1.10
2017-12-02T10:21:23.931Z,-1.10
2017-12-02T10:23:51.419Z,-1.00
2017-12-02T10:26:19.665Z,-0.90
2017-12-02T10:28:47.920Z,-1.00
2017-12-02T10:31:15.386Z,-1.00
2017-12-02T10:33:42.875Z,-1.00
2017-12-02T10:36:11.112Z,-1.00
2017-12-02T10:38:38.603Z,-1.00
2017-12-02T10:41:06.855Z,-1.00
2017-12-02T10:43:34.323Z,-1.00
2017-12-02T10:46:02.579Z,-0.90
2017-12-02T10:48:30.067Z,-0.90
2017-12-02T10:50:59.114Z,-0.70
2017-12-02T10:53:26.734Z,-0.70
2017-12-02T10:55:54.218Z,-0.80
2017-12-02T10:58:21.690Z,-0.80
2017-12-02T11:00:49.164Z,-0.80
2017-12-02T11:03:16.638Z,-0.80
2017-12-02T11:05:44.878Z,-0.80
2017-12-02T11:08:12.363Z,-0.80
2017-12-02T11:10:39.835Z,-0.90
2017-12-02T11:13:08.087Z,-0.70
2017-12-02T11:15:35.563Z,-0.70
2017-12-02T11:18:03.810Z,-1.00
2017-12-02T11:20:31.302Z,-1.00
2017-12-02T11:22:59.531Z,-0.80
2017-12-02T11:25:27.035Z,-0.80
2017-12-02T11:27:55.263Z,-0.60
2017-12-02T11:30:22.754Z,-0.60
2017-12-02T11:32:50.990Z,-0.60
2017-12-02T11:35:18.477Z,-0.70
2017-12-02T11:37:45.951Z,-0.60
2017-12-02T11:40:14.205Z,-0.60
2017-12-02T11:42:41.703Z,-0.60
2017-12-02T11:45:09.190Z,-0.60
2017-12-02T11:47:36.658Z,-0.60
2017-12-02T11:50:04.133Z,-0.70
2017-12-02T11:52:31.614Z,-0.70
2017-12-02T11:54:59.936Z,-0.70
2017-12-02T11:57:27.409Z,-0.70
2017-12-02T11:59:54.882Z,-0.60
2017-12-02T12:02:22.380Z,-0.50
2017-12-02T12:04:49.859Z,-0.40
2017-12-02T12:07:17.347Z,-0.30
2017-12-02T12:09:47.556Z,-0.30
2017-12-02T12:12:15.049Z,-0.40
2017-12-02T12:14:43.308Z,-0.40
2017-12-02T12:17:10.769Z,-0.40
2017-12-02T12:19:39.025Z,-0.40
2017-12-02T12:22:06.506Z,-0.50
2017-12-02T12:24:34.762Z,-0.30
2017-12-02T12:27:02.238Z,-0.30
2017-12-02T12:29:30.525Z,-0.20
2017-12-02T12:31:58.766Z,-0.30
2017-12-02T12:34:26.256Z,-0.30
2017-12-02T12:36:54.503Z,-0.30
2017-12-02T12:39:21.975Z,-0.30
2017-12-02T12:41:50.225Z,-0.40
2017-12-02T12:44:17.701Z,-0.40
2017-12-02T12:46:45.175Z,-0.40
2017-12-02T12:49:13.418Z,-0.60
2017-12-02T12:51:40.919Z,-0.60
2017-12-02T12:54:08.387Z,-0.60
2017-12-02T12:56:35.858Z,-0.50
2017-12-02T12:59:03.347Z,-0.50
2017-12-02T13:01:30.839Z,-0.40
2017-12-02T13:03:58.879Z,-0.40
2017-12-02T13:06:26.344Z,-0.40
2017-12-02T13:08:54.594Z,-0.50
2017-12-02T13:11:22.069Z,-0.50
2017-12-02T13:13:49.559Z,-0.60
2017-12-02T13:16:17.049Z,-0.60
2017-12-02T13:18:44.542Z,-0.50
2017-12-02T13:21:12.026Z,-0.60
2017-12-02T13:23:39.510Z,-0.50
2017-12-02T13:26:06.986Z,-0.70
2017-12-02T13:28:34.462Z,-0.70
2017-12-02T13:31:01.939Z,-0.70
2017-12-02T13:33:30.190Z,-0.50
2017-12-02T13:35:57.703Z,-0.50
2017-12-02T13:38:25.187Z,-0.40
2017-12-02T13:40:52.675Z,-0.40
2017-12-02T13:43:20.912Z,-0.50
2017-12-02T13:45:48.390Z,-0.50
2017-12-02T13:48:15.887Z,-0.40
2017-12-02T13:50:44.220Z,-0.50
2017-12-02T13:53:11.698Z,-0.40
2017-12-02T13:55:39.950Z,-0.40
2017-12-02T13:58:07.463Z,-0.40
2017-12-02T14:00:34.935Z,-0.40
2017-12-02T14:03:02.422Z,-0.40
2017-12-02T14:05:29.907Z,-0.50
2017-12-02T14:07:58.158Z,-0.50
2017-12-02T14:10:25.642Z,-0.50
2017-12-02T14:12:53.897Z,-0.50
2017-12-02T14:15:21.395Z,-0.50
2017-12-02T14:17:48.872Z,-0.50
2017-12-02T14:20:16.355Z,-0.40
2017-12-02T14:22:44.613Z,-0.40
2017-12-02T14:25:12.335Z,-0.40
2017-12-02T14:27:40.595Z,-0.50
2017-12-02T14:30:08.839Z,-0.50
2017-12-02T14:32:36.324Z,-0.50
2017-12-02T14:35:04.583Z,-0.40
2017-12-02T14:37:32.070Z,-0.40
2017-12-02T14:40:00.364Z,-0.50
2017-12-02T14:42:27.853Z,-0.50
2017-12-02T14:44:55.342Z,-0.50
2017-12-02T14:47:22.813Z,-0.40
2017-12-02T14:49:51.078Z,-0.50
2017-12-02T14:52:19.311Z,-0.50
2017-12-02T14:54:46.798Z,-0.60
2017-12-02T14:57:14.279Z,-0.60
2017-12-02T14:59:42.522Z,-0.40
2017-12-02T15:02:10.003Z,-0.40
2017-12-02T15:04:37.474Z,-0.40
2017-12-02T15:07:04.974Z,-0.40
2017-12-02T15:09:32.471Z,-0.50
2017-12-02T15:11:59.993Z,-0.40
2017-12-02T15:14:27.538Z,-0.40
2017-12-02T15:16:55.035Z,-0.40
2017-12-02T15:19:22.503Z,-0.40
2017-12-02T15:21:50.759Z,-0.30
2017-12-02T15:24:18.235Z,-0.40
2017-12-02T15:26:46.480Z,-0.40
2017-12-02T15:29:13.994Z,-0.40
2017-12-02T15:31:43.140Z,-0.30
2017-12-02T15:34:10.637Z,-0.30
2017-12-02T15:36:38.971Z,-0.40
2017-12-02T15:39:06.442Z,-0.40
2017-12-02T15:41:34.705Z,-0.40
2017-12-02T15:44:02.976Z,-0.40
2017-12-02T15:46:30.470Z,-0.40
2017-12-02T15:48:58.709Z,-0.30
2017-12-02T15:51:26.277Z,-0.40
2017-12-02T15:53:53.778Z,-0.40
2017-12-02T15:56:21.259Z,-0.30
2017-12-02T15:58:48.748Z,-0.30
2017-12-02T16:01:16.246Z,-0.40
2017-12-02T16:03:43.722Z,-0.30
2017-12-02T16:06:11.211Z,-0.30
2017-12-02T16:08:38.731Z,-0.30
2017-12-02T16:11:06.198Z,-0.30
2017-12-02T16:13:33.691Z,-0.20
2017-12-02T16:16:01.194Z,-0.20
2017-12-02T16:18:28.709Z,-0.30
2017-12-02T16:20:56.195Z,-0.30
2017-12-02T16:23:24.423Z,-0.30
2017-12-02T16:25:51.928Z,-0.30
2017-12-02T16:28:19.412Z,-0.20
2017-12-02T16:30:46.964Z,-0.20
2017-12-02T16:33:14.551Z,-0.20
2017-12-02T16:35:42.857Z,-0.10
2017-12-02T16:38:10.331Z,-0.20
2017-12-02T16:40:37.830Z,-0.10
2017-12-02T16:43:05.300Z,-0.10
2017-12-02T16:45:32.838Z,-0.10
2017-12-02T16:48:00.969Z,-0.20
2017-12-02T16:50:28.551Z,-0.10
2017-12-02T16:52:56.039Z,-0.10
2017-12-02T16:55:23.522Z,-0.20
2017-12-02T16:57:51.035Z,-0.20
2017-12-02T17:00:19.525Z,-0.20
2017-12-02T17:02:47.018Z,-0.20
2017-12-02T17:05:14.499Z,-0.30
2017-12-02T17:07:41.998Z,-0.20
2017-12-02T17:10:09.483Z,-0.20
2017-12-02T17:12:36.965Z,-0.20
2017-12-02T17:15:05.302Z,-0.10
2017-12-02T17:17:32.806Z,-0.10
2017-12-02T17:20:00.293Z,-0.10
2017-12-02T17:22:27.775Z,-0.10
2017-12-02T17:24:55.267Z,0.00
2017-12-02T17:27:23.509Z,0.10
2017-12-02T17:29:50.988Z,0.10
2017-12-02T17:32:19.246Z,0.20
2017-12-02T17:34:46.724Z,0.10
2017-12-02T17:37:14.979Z,0.10
2017-12-02T17:39:42.507Z,0.10
2017-12-02T17:42:10.000Z,0.20
2017-12-02T17:44:37.483Z,0.20
2017-12-02T17:47:05.018Z,0.20
2017-12-02T17:49:32.482Z,0.30
2017-12-02T17:52:00.734Z,0.30
2017-12-02T17:54:28.222Z,0.30
2017-12-02T17:56:56.489Z,0.30
2017-12-02T17:59:24.737Z,0.30
2017-12-02T18:01:52.240Z,0.30
2017-12-02T18:04:20.471Z,0.40
2017-12-02T18:06:47.953Z,0.30
2017-12-02T18:09:16.194Z,0.40
2017-12-02T18:11:43.728Z,0.40
2017-12-02T18:14:11.206Z,0.40
2017-12-02T18:16:38.687Z,0.40
2017-12-02T18:19:06.175Z,0.50
2017-12-02T18:21:33.670Z,0.40
2017-12-02T18:24:01.131Z,0.40
2017-12-02T18:26:28.598Z,0.40
2017-12-02T18:28:56.144Z,0.40
2017-12-02T18:31:23.623Z,0.40
2017-12-02T18:33:52.630Z,0.30
2017-12-02T18:36:20.877Z,0.30
2017-12-02T18:38:48.370Z,0.30
2017-12-02T18:41:16.625Z,0.50
2017-12-02T18:43:44.147Z,0.40
2017-12-02T18:46:11.655Z,0.40
2017-12-02T18:48:39.922Z,0.40
2017-12-02T18:51:08.216Z,0.40
2017-12-02T18:53:36.804Z,0.40
2017-12-02T18:56:05.042Z,0.40
2017-12-02T18:58:32.680Z,0.40
2017-12-02T19:01:00.150Z,0.30
2017-12-02T19:03:27.643Z,0.30
2017-12-02T19:05:55.928Z,0.30
2017-12-02T19:08:24.155Z,0.30
2017-12-02T19:10:51.639Z,0.30
2017-12-02T19:13:19.886Z,0.10
2017-12-02T19:15:47.408Z,0.10
2017-12-02T19:18:14.880Z,0.10
2017-12-02T19:20:42.371Z,0.10
2017-12-02T19:23:09.909Z,0.10
2017-12-02T19:25:37.387Z,0.00
2017-12-02T19:28:04.905Z,0.00
2017-12-02T19:30:32.385Z,0.10
2017-12-02T19:32:59.875Z,0.20
2017-12-02T19:35:27.343Z,0.10
2017-12-02T19:37:55.586Z,0.10
2017-12-02T19:40:23.066Z,0.10
2017-12-02T19:42:51.318Z,0.10
2017-12-02T19:45:18.805Z,0.10
2017-12-02T19:47:47.078Z,0.20
2017-12-02T19:50:15.326Z,0.20
2017-12-02T19:52:42.807Z,0.10
2017-12-02T19:55:11.087Z,0.20
2017-12-02T19:57:39.331Z,0.30
2017-12-02T20:00:06.816Z,0.20
2017-12-02T20:02:35.145Z,0.30
2017-12-02T20:05:02.624Z,0.30
2017-12-02T20:07:30.094Z,0.30
2017-12-02T20:09:58.359Z,0.30
2017-12-02T20:12:25.923Z,0.30
2017-12-02T20:14:53.435Z,0.30
2017-12-02T20:17:20.910Z,0.40
2017-12-02T20:19:48.486Z,0.40
2017-12-02T20:22:15.955Z,0.40
2017-12-02T20:24:43.431Z,0.40
2017-12-02T20:27:10.990Z,0.20
2017-12-02T20:29:39.231Z,0.20
2017-12-02T20:32:06.818Z,0.20
2017-12-02T20:34:35.090Z,0.20
2017-12-02T20:37:02.593Z,0.20
2017-12-02T20:39:30.055Z,0.20
2017-12-02T20:41:57.547Z,0.20
2017-12-02T20:44:25.025Z,0.20
2017-12-02T20:46:53.287Z,0.20
2017-12-02T20:49:20.749Z,0.20
2017-12-02T20:51:48.398Z,0.30
2017-12-02T20:54:15.878Z,0.30
2017-12-02T20:56:43.361Z,0.30
2017-12-02T20:59:10.849Z,0.30
2017-12-02T21:01:38.315Z,0.30
2017-12-02T21:04:05.794Z,0.30
2017-12-02T21:06:37.311Z,0.30
2017-12-02T21:09:04.802Z,0.20
2017-12-02T21:11:33.037Z,0.20
2017-12-02T21:14:00.615Z,0.20
2017-12-02T21:16:28.111Z,0.20
2017-12-02T21:18:55.691Z,0.30
2017-12-02T21:21:23.189Z,0.30
2017-12-02T21:23:50.670Z,0.30
2017-12-02T21:26:18.923Z,0.30
2017-12-02T21:28:46.401Z,0.30
2017-12-02T21:31:14.648Z,0.30
2017-12-02T21:33:42.140Z,0.30
2017-12-02T21:36:10.399Z,0.40
2017-12-02T21:38:39.191Z,0.30
2017-12-02T21:41:08.663Z,0.30
2017-12-02T21:43:36.133Z,0.30
2017-12-02T21:46:03.614Z,0.30
2017-12-02T21:48:31.854Z,0.20
2017-12-02T21:50:59.337Z,0.10
2017-12-02T21:53:26.835Z,0.10
2017-12-02T21:55:54.345Z,0.10
2017-12-02T21:58:21.843Z,0.10
2017-12-02T22:00:49.393Z,0.10
2017-12-02T22:03:16.862Z,0.10
2017-12-02T22:05:44.339Z,0.10
2017-12-02T22:08:11.811Z,0.00
2017-12-02T22:10:39.298Z,0.10
2017-12-02T22:13:07.561Z,0.10
2017-12-02T22:15:35.057Z,0.10
2017-12-02T22:18:02.560Z,0.10
2017-12-02T22:20:30.026Z,0.10
2017-12-02T22:22:57.510Z,0.10
2017-12-02T22:25:25.750Z,0.10
2017-12-02T22:27:53.250Z,0.00
2017-12-02T22:30:20.728Z,0.10
2017-12-02T22:32:48.226Z,0.10
2017-12-02T22:35:15.694Z,0.10
2017-12-02T22:37:43.944Z,0.10
2017-12-02T22:40:11.429Z,0.10
2017-12-02T22:42:39.684Z,0.20
2017-12-02T22:45:07.207Z,0.20
2017-12-02T22:47:34.692Z,0.20
2017-12-02T22:50:02.163Z,0.20
2017-12-02T22:52:29.631Z,0.20
2017-12-02T22:54:57.899Z,0.20
2017-12-02T22:57:25.376Z,0.20
2017-12-02T22:59:53.640Z,0.20
2017-12-02T23:02:21.875Z,0.20
2017-12-02T23:04:49.374Z,0.20
2017-12-02T23:07:17.640Z,0.30
2017-12-02T23:09:45.130Z,0.30
2017-12-02T23:12:12.616Z,0.30
2017-12-02T23:14:40.096Z,0.30
2017-12-02T23:17:07.575Z,0.20
2017-12-02T23:19:35.893Z,0.20
2017-12-02T23:22:03.375Z,0.20
2017-12-02T23:24:30.842Z,0.20
2017-12-02T23:26:58.332Z,0.30
2017-12-02T23:29:26.574Z,0.20
2017-12-02T23:31:54.061Z,0.20
2017-12-02T23:34:22.322Z,0.30
2017-12-02T23:36:49.801Z,0.30
2017-12-02T23:39:18.047Z,0.30
2017-12-02T23:41:45.515Z,0.30
2017-12-02T23:44:13.766Z,0.30
2017-12-02T23:46:41.239Z,0.30
2017-12-02T23:49:08.727Z,0.30
2017-12-02T23:51:36.218Z,0.30
2017-12-02T23:54:03.677Z,0.30
2017-12-02T23:56:31.166Z,0.30
2017-12-02T23:58:58.633Z,0.30
